Time;durP1;ratioP1;P1;durP2;ratioP2;P2;SDS_P1;SDS_P2;PMS_P1;PMS_P2;Temp;Humidity;BMP_temperature;BMP_pressure;BME280_temperature;BME280_humidity;BME280_pressure;Samples;Min_cycle;Max_cycle;Signal;HPM_P1;HPM_P2
2023/12/31 00:01:23;;;;;;;4.35;3.20;;;5.30;65.60;;;0.38;100.00;95097.72;4991931;28;20540;-57
2023/12/31 00:03:49;;;;;;;4.07;3.20;;;5.40;65.70;;;0.37;100.00;95101.34;4985887;28;20560;-56
2023/12/31 00:06:15;;;;;;;4.38;3.08;;;5.40;65.60;;;0.32;100.00;95085.47;4992317;28;20112;-56
2023/12/31 00:08:41;;;;;;;4.20;2.80;;;5.30;65.60;;;0.37;100.00;95079.59;4988545;28;20397;-54
2023/12/31 00:11:06;;;;;;;5.18;3.22;;;5.30;65.70;;;0.37;100.00;95083.00;4992103;28;20075;-57
2023/12/31 00:13:32;;;;;;;3.38;2.80;;;5.30;65.70;;;0.37;100.00;95083.00;4990697;28;20565;-53
2023/12/31 00:15:58;;;;;;;5.03;2.80;;;5.30;65.70;;;0.37;100.00;95074.34;4992118;28;20033;-55
2023/12/31 00:18:24;;;;;;;2.90;2.58;;;5.20;65.60;;;0.29;100.00;95070.19;4992766;28;20076;-54
2023/12/31 00:20:50;;;;;;;3.38;2.65;;;5.30;65.60;;;0.17;100.00;95064.81;4988585;28;20068;-56
2023/12/31 00:23:15;;;;;;;5.15;2.72;;;5.20;65.50;;;0.19;100.00;95059.38;4992292;28;20444;-54
2023/12/31 00:25:41;;;;;;;4.57;2.80;;;5.20;65.50;;;0.09;100.00;95059.81;4991716;28;20030;-54
2023/12/31 00:28:07;;;;;;;4.35;2.92;;;5.10;65.50;;;0.08;100.00;95052.97;4990222;28;20026;-54
2023/12/31 00:30:34;;;;;;;4.53;2.65;;;5.10;65.50;;;0.03;100.00;95050.19;4991373;28;20396;-55
2023/12/31 00:33:00;;;;;;;5.70;2.60;;;5.10;65.50;;;0.01;100.00;95036.53;4989198;28;20113;-58
2023/12/31 00:35:26;;;;;;;5.00;2.80;;;5.00;65.50;;;-0.11;100.00;95033.78;4991652;28;20101;-55
2023/12/31 00:37:51;;;;;;;4.07;2.97;;;5.00;65.40;;;-0.16;100.00;95028.34;4991127;28;20056;-53
2023/12/31 00:40:17;;;;;;;4.03;2.85;;;4.90;65.40;;;-0.10;100.00;95026.72;4992050;28;20099;-53
2023/12/31 00:42:43;;;;;;;5.93;2.70;;;4.90;65.60;;;-0.09;100.00;95031.75;4991636;28;20033;-52
2023/12/31 00:45:09;;;;;;;4.35;2.92;;;4.90;65.70;;;-0.03;100.00;95027.50;4991589;28;20044;-54
2023/12/31 00:47:35;;;;;;;4.13;2.70;;;4.90;65.70;;;-0.08;100.00;95022.06;4991182;28;20076;-54
2023/12/31 00:50:01;;;;;;;4.43;3.00;;;4.90;65.80;;;-0.11;100.00;95002.34;4984633;28;20483;-54
2023/12/31 00:52:27;;;;;;;3.03;2.40;;;4.80;65.80;;;-0.13;100.00;95004.38;4991173;28;20033;-59
2023/12/31 00:54:53;;;;;;;3.92;2.63;;;4.90;65.80;;;-0.11;100.00;94996.31;4992885;28;20531;-58
2023/12/31 00:57:19;;;;;;;4.13;2.50;;;4.90;65.90;;;-0.09;100.00;94997.72;5007832;28;20034;-59
2023/12/31 00:59:45;;;;;;;3.15;2.10;;;4.90;66.00;;;-0.04;100.00;94997.06;4993447;28;20026;-59
2023/12/31 01:02:11;;;;;;;3.00;2.20;;;4.90;66.10;;;0.08;100.00;94989.34;4990598;28;20033;-55
2023/12/31 01:04:37;;;;;;;3.53;2.28;;;4.90;66.30;;;0.10;100.00;94975.00;4990458;28;20042;-58
2023/12/31 01:07:03;;;;;;;2.22;1.90;;;4.90;66.30;;;0.14;100.00;94978.78;4994049;28;20025;-58
2023/12/31 01:09:29;;;;;;;2.42;2.00;;;4.90;66.30;;;0.21;100.00;94979.53;4993654;28;20072;-57
2023/12/31 01:11:54;;;;;;;2.30;1.63;;;5.00;66.40;;;0.27;100.00;94977.88;4993660;28;20033;-54
2023/12/31 01:14:20;;;;;;;3.88;2.10;;;5.00;66.30;;;0.29;100.00;94968.00;4989439;28;20049;-58
2023/12/31 01:16:46;;;;;;;2.50;1.77;;;5.10;66.40;;;0.30;100.00;94968.81;4985857;28;20032;-59
2023/12/31 01:19:12;;;;;;;3.22;2.03;;;5.10;66.20;;;0.25;100.00;94972.03;4991443;28;20030;-58
2023/12/31 01:21:38;;;;;;;2.70;2.20;;;5.10;66.10;;;0.28;100.00;94969.00;4986994;28;20099;-57
2023/12/31 01:24:04;;;;;;;3.47;1.95;;;5.10;66.00;;;0.27;100.00;94971.84;4991310;28;20065;-55
2023/12/31 01:26:30;;;;;;;2.90;1.88;;;5.10;65.90;;;0.12;100.00;94953.81;4990259;28;20067;-59
2023/12/31 01:28:55;;;;;;;2.97;2.00;;;5.10;65.80;;;0.11;100.00;94960.09;4991312;28;20033;-54
2023/12/31 01:31:22;;;;;;;3.85;1.90;;;5.10;65.80;;;0.04;100.00;94959.34;4990146;28;20433;-58
2023/12/31 01:33:48;;;;;;;3.10;2.10;;;5.10;65.70;;;-0.02;100.00;94951.31;4992177;28;20021;-58
2023/12/31 01:36:20;;;;;;;2.28;2.00;;;5.00;65.60;;;0.04;100.00;94947.06;4994218;28;20022;-57
2023/12/31 01:38:46;;;;;;;3.15;1.98;;;5.00;65.60;;;0.01;100.00;94941.44;4994570;28;20052;-55
2023/12/31 01:41:12;;;;;;;2.83;2.00;;;5.00;65.60;;;-0.04;100.00;94944.69;4995298;28;20020;-58
2023/12/31 01:43:38;;;;;;;2.45;1.50;;;5.00;65.70;;;-0.02;100.00;94937.44;4994099;28;20041;-59
2023/12/31 01:46:08;;;;;;;4.47;1.67;;;5.00;65.70;;;-0.02;100.00;94937.44;4978450;28;20100;-57
2023/12/31 01:48:35;;;;;;;2.55;1.95;;;5.00;65.70;;;0.04;100.00;94928.72;4978661;28;20029;-58
2023/12/31 01:51:03;;;;;;;2.75;1.45;;;4.90;65.70;;;0.05;100.00;94917.22;4990291;28;20683;-59
2023/12/31 01:53:31;;;;;;;3.00;2.00;;;4.90;65.70;;;-0.01;100.00;94929.34;4996133;28;20057;-59
2023/12/31 01:55:59;;;;;;;2.20;1.50;;;4.90;65.70;;;0.02;100.00;94914.25;4977266;28;20116;-55
2023/12/31 01:58:26;;;;;;;3.28;1.80;;;5.00;65.80;;;0.12;100.00;94907.47;4994728;28;20025;-59
2023/12/31 02:00:52;;;;;;;2.25;1.65;;;5.00;66.00;;;0.19;100.00;94903.00;5010277;28;20056;-57
2023/12/31 02:03:19;;;;;;;2.15;1.50;;;5.00;66.00;;;0.41;100.00;94900.78;4990326;28;20527;-58
2023/12/31 02:05:45;;;;;;;3.03;1.40;;;5.00;66.20;;;0.53;100.00;94894.78;4991457;28;22924;-52
2023/12/31 02:08:11;;;;;;;2.00;1.40;;;5.20;66.40;;;0.61;100.00;94895.31;4990785;28;20108;-53
2023/12/31 02:10:36;;;;;;;2.10;1.52;;;5.20;66.30;;;0.66;100.00;94892.03;4993260;28;20029;-53
2023/12/31 02:13:03;;;;;;;2.30;1.48;;;5.30;66.30;;;0.65;100.00;94878.13;4993364;28;20036;-49
2023/12/31 02:15:34;;;;;;;3.28;1.60;;;5.40;66.10;;;0.65;100.00;94874.69;4991566;28;20519;-50
2023/12/31 02:18:03;;;;;;;2.13;1.53;;;5.40;65.90;;;0.57;100.00;94873.19;4992121;28;20573;-51
2023/12/31 02:20:30;;;;;;;1.50;1.30;;;5.40;65.60;;;0.54;100.00;94867.59;4990242;28;20077;-50
2023/12/31 02:22:58;;;;;;;1.77;1.33;;;5.40;65.40;;;0.51;100.00;94853.09;4992998;28;20215;-53
2023/12/31 02:25:29;;;;;;;2.00;1.10;;;5.40;65.30;;;0.57;100.00;94848.81;4991594;28;20029;-61
2023/12/31 02:27:56;;;;;;;2.13;1.30;;;5.40;65.30;;;0.59;100.00;94847.53;4991569;28;20481;-55
2023/12/31 02:30:25;;;;;;;2.60;1.27;;;5.40;65.20;;;0.63;100.00;94840.84;4993271;28;20025;-55
2023/12/31 02:32:51;;;;;;;1.80;1.13;;;5.40;65.10;;;0.64;100.00;94839.03;4990894;28;20484;-53
2023/12/31 02:35:17;;;;;;;2.33;1.35;;;5.40;65.00;;;0.56;100.00;94840.09;4993046;28;20078;-54
2023/12/31 02:37:43;;;;;;;1.88;1.48;;;5.40;65.00;;;0.52;100.00;94830.31;4991862;28;20072;-57
2023/12/31 02:40:09;;;;;;;2.85;1.85;;;5.40;64.90;;;0.50;100.00;94832.31;4992841;28;20021;-53
2023/12/31 02:42:35;;;;;;;1.83;1.40;;;5.40;64.80;;;0.43;100.00;94827.97;4989693;28;20030;-50
2023/12/31 02:45:01;;;;;;;1.55;1.35;;;5.40;64.70;;;0.37;100.00;94815.75;4990890;28;20651;-52
2023/12/31 02:47:27;;;;;;;1.90;1.50;;;5.30;64.60;;;0.33;100.00;94813.78;4992402;28;20033;-52
2023/12/31 02:49:53;;;;;;;1.77;1.25;;;5.30;64.60;;;0.32;100.00;94812.19;4991810;28;20017;-50
2023/12/31 02:52:18;;;;;;;3.65;1.48;;;5.30;64.70;;;0.25;100.00;94806.22;4992615;28;20030;-54
2023/12/31 02:54:45;;;;;;;1.45;1.30;;;5.30;64.70;;;0.08;100.00;94800.78;4992518;28;20029;-53
2023/12/31 02:57:12;;;;;;;2.22;1.67;;;5.20;64.60;;;0.10;100.00;94793.50;5006354;28;20026;-49
2023/12/31 02:59:38;;;;;;;3.20;2.00;;;5.20;64.50;;;0.10;100.00;94790.88;4992957;28;20022;-54
2023/12/31 03:02:04;;;;;;;2.72;2.10;;;5.20;64.40;;;-0.03;100.00;94797.88;4991817;28;20376;-53
2023/12/31 03:04:30;;;;;;;3.55;2.40;;;5.10;64.40;;;-0.03;100.00;94787.38;4991081;28;20049;-50
2023/12/31 03:06:56;;;;;;;3.70;2.55;;;5.00;64.50;;;-0.07;100.00;94788.81;4991784;28;20205;-51
2023/12/31 03:09:22;;;;;;;4.80;3.05;;;5.00;64.60;;;-0.11;100.00;94785.03;5003244;28;20018;-51
2023/12/31 03:11:51;;;;;;;4.25;3.30;;;5.00;64.70;;;-0.18;100.00;94773.84;4983072;28;20469;-54
2023/12/31 03:14:18;;;;;;;5.78;3.67;;;4.90;64.80;;;-0.17;100.00;94774.66;4987213;28;20038;-52
2023/12/31 03:16:45;;;;;;;5.10;3.83;;;4.90;64.80;;;-0.14;100.00;94766.34;4988944;28;20072;-57
2023/12/31 03:19:13;;;;;;;5.53;3.90;;;4.90;65.00;;;-0.22;100.00;94759.56;4987127;28;20108;-50
2023/12/31 03:21:39;;;;;;;5.75;3.80;;;4.80;65.00;;;-0.16;100.00;94752.69;4985619;28;20037;-52
2023/12/31 03:24:07;;;;;;;6.30;4.13;;;4.80;65.30;;;-0.08;100.00;94755.81;4991591;28;20037;-51
2023/12/31 03:26:33;;;;;;;6.82;4.00;;;4.90;65.50;;;-0.02;100.00;94746.28;4983639;28;20111;-52
2023/12/31 03:28:59;;;;;;;6.20;3.90;;;4.90;65.70;;;-0.04;100.00;94737.84;4991072;28;20033;-55
2023/12/31 03:31:25;;;;;;;5.32;3.80;;;4.90;65.70;;;-0.13;100.00;94734.72;4984651;28;20048;-53
2023/12/31 03:33:50;;;;;;;6.25;4.50;;;4.90;65.70;;;-0.20;100.00;94722.72;4989804;28;20030;-50
2023/12/31 03:36:16;;;;;;;6.10;4.30;;;4.80;65.50;;;-0.20;100.00;94720.09;4987614;28;20022;-49
2023/12/31 03:38:42;;;;;;;8.75;5.00;;;4.80;65.40;;;-0.15;100.00;94717.66;4990274;28;20543;-55
2023/12/31 03:41:08;;;;;;;6.80;4.80;;;4.80;65.60;;;-0.08;100.00;94723.59;4984923;28;20026;-52
2023/12/31 03:43:34;;;;;;;7.57;5.47;;;4.80;65.60;;;-0.06;100.00;94721.56;4989815;28;20124;-52
2023/12/31 03:45:59;;;;;;;7.88;5.57;;;4.80;65.80;;;-0.04;100.00;94717.69;4990787;28;20014;-58
2023/12/31 03:48:26;;;;;;;9.13;6.47;;;4.90;66.00;;;0.11;100.00;94711.28;4991461;28;20025;-53
2023/12/31 03:50:52;;;;;;;8.88;5.88;;;4.90;66.30;;;0.26;100.00;94711.69;4990587;28;20021;-50
2023/12/31 03:53:18;;;;;;;6.97;5.28;;;4.90;66.70;;;0.28;100.00;94712.25;4995137;28;20025;-53
2023/12/31 03:55:44;;;;;;;9.02;6.00;;;5.00;66.80;;;0.35;100.00;94710.38;4989709;28;20029;-50
2023/12/31 03:58:10;;;;;;;7.75;5.28;;;5.10;66.90;;;0.38;100.00;94714.38;4990102;28;20032;-51
2023/12/31 04:00:36;;;;;;;10.88;6.63;;;5.10;67.00;;;0.50;100.00;94709.16;4990396;28;20468;-53
2023/12/31 04:03:03;;;;;;;9.48;6.10;;;5.20;67.10;;;0.44;100.00;94687.28;4989752;28;20484;-52
2023/12/31 04:05:30;;;;;;;7.70;5.80;;;5.30;67.20;;;0.51;100.00;94679.34;4990151;28;20093;-49
2023/12/31 04:07:57;;;;;;;10.63;6.72;;;5.30;67.20;;;0.71;100.00;94674.59;4986009;28;20113;-52
2023/12/31 04:10:22;;;;;;;10.82;6.25;;;5.40;67.60;;;0.85;100.00;94672.56;4990154;28;20104;-54
2023/12/31 04:12:48;;;;;;;8.38;5.60;;;5.50;67.70;;;0.87;100.00;94663.44;4989626;28;20536;-49
2023/12/31 04:15:14;;;;;;;10.65;6.13;;;5.50;67.60;;;0.90;100.00;94660.34;4989928;28;20052;-51
2023/12/31 04:17:40;;;;;;;9.00;6.18;;;5.60;67.60;;;0.90;100.00;94649.06;4983309;28;20022;-49
2023/12/31 04:20:07;;;;;;;10.15;6.90;;;5.60;67.60;;;0.93;100.00;94648.63;4988144;28;20033;-53
2023/12/31 04:22:33;;;;;;;11.20;6.82;;;5.70;67.50;;;0.94;100.00;94647.63;4990467;28;20432;-51
2023/12/31 04:24:59;;;;;;;9.18;6.43;;;5.70;67.30;;;0.93;100.00;94641.56;4990836;28;20022;-51
2023/12/31 04:27:25;;;;;;;10.18;6.75;;;5.70;67.30;;;0.86;100.00;94635.63;4990300;28;20037;-49
2023/12/31 04:29:50;;;;;;;9.88;7.15;;;5.80;67.30;;;0.96;100.00;94642.13;4990999;28;20496;-50
2023/12/31 04:32:16;;;;;;;10.52;7.13;;;5.80;67.30;;;1.02;100.00;94639.41;4989579;28;20034;-50
2023/12/31 04:34:42;;;;;;;13.60;8.07;;;5.80;67.20;;;1.03;100.00;94634.94;4990743;28;20022;-52
2023/12/31 04:37:08;;;;;;;11.05;7.45;;;5.80;67.40;;;1.02;100.00;94626.28;4990724;28;20017;-49
2023/12/31 04:39:33;;;;;;;13.02;8.55;;;5.80;67.50;;;1.03;100.00;94614.75;4989529;28;20022;-51
2023/12/31 04:41:59;;;;;;;11.93;8.43;;;5.80;67.50;;;1.03;100.00;94613.97;4990096;28;20021;-49
2023/12/31 04:44:26;;;;;;;14.60;8.85;;;5.90;67.50;;;1.09;100.00;94632.22;4988539;28;20104;-53
2023/12/31 04:46:52;;;;;;;18.02;9.88;;;5.90;67.50;;;1.17;100.00;94628.47;4990501;28;20014;-49
2023/12/31 04:49:18;;;;;;;18.83;10.45;;;5.90;67.90;;;1.39;100.00;94621.59;4990422;28;20535;-49
2023/12/31 04:51:44;;;;;;;16.45;8.88;;;6.00;68.10;;;1.41;100.00;94612.69;4988495;28;20024;-50
2023/12/31 04:54:10;;;;;;;17.95;10.10;;;6.00;68.20;;;1.48;100.00;94616.78;4990518;28;20026;-52
2023/12/31 04:56:37;;;;;;;16.27;10.40;;;6.10;68.20;;;1.55;100.00;94621.91;4989095;28;20067;-50
2023/12/31 04:59:04;;;;;;;15.75;10.23;;;6.10;68.10;;;1.50;100.00;94608.66;4990434;28;20022;-50
2023/12/31 05:01:32;;;;;;;15.52;9.07;;;6.20;68.10;;;1.37;100.00;94600.03;4989179;28;20030;-60
2023/12/31 05:04:00;;;;;;;14.63;10.02;;;6.20;68.00;;;1.43;100.00;94611.44;4985301;28;21001;-55
2023/12/31 05:06:26;;;;;;;18.58;11.02;;;6.20;67.70;;;1.31;100.00;94590.44;4985995;28;20025;-51
2023/12/31 05:08:52;;;;;;;17.38;10.38;;;6.20;67.70;;;1.28;100.00;94598.78;4987582;28;20045;-54
2023/12/31 05:11:18;;;;;;;16.52;10.25;;;6.20;67.60;;;1.32;100.00;94610.44;4989945;28;20018;-49
2023/12/31 05:13:45;;;;;;;17.50;10.95;;;6.20;67.50;;;1.28;100.00;94595.34;4989054;28;20240;-50
2023/12/31 05:16:14;;;;;;;19.73;12.00;;;6.20;67.50;;;1.21;100.00;94592.84;4989656;28;20685;-51
2023/12/31 05:18:51;;;;;;;18.63;10.98;;;6.10;67.40;;;1.20;100.00;94593.09;4989493;28;20083;-51
2023/12/31 05:21:17;;;;;;;17.98;12.18;;;6.10;67.40;;;1.25;100.00;94611.56;4986361;28;20048;-52
2023/12/31 05:23:43;;;;;;;16.58;11.18;;;6.10;67.60;;;1.25;100.00;94620.22;4988092;28;20395;-56
2023/12/31 05:26:09;;;;;;;19.23;11.75;;;6.10;67.70;;;1.23;100.00;94609.19;4989140;28;20029;-50
2023/12/31 05:28:34;;;;;;;17.20;11.52;;;6.10;67.60;;;1.19;100.00;94615.09;4989873;28;20032;-50
2023/12/31 05:31:00;;;;;;;19.73;11.98;;;6.00;67.60;;;1.16;100.00;94608.50;4988738;28;20033;-49
2023/12/31 05:33:26;;;;;;;18.05;10.80;;;6.00;68.10;;;1.09;100.00;94613.84;4987407;28;20515;-53
2023/12/31 05:35:52;;;;;;;12.60;8.90;;;6.00;67.60;;;0.88;100.00;94617.06;4988265;28;20017;-51
2023/12/31 05:38:19;;;;;;;13.20;8.48;;;6.00;67.40;;;0.79;100.00;94621.84;4985876;28;20129;-50
2023/12/31 05:40:45;;;;;;;12.70;7.68;;;5.90;67.20;;;0.55;100.00;94631.47;4990201;28;20105;-54
2023/12/31 05:43:11;;;;;;;9.05;6.93;;;5.80;66.90;;;0.35;100.00;94623.91;4986431;28;20044;-50
2023/12/31 05:45:38;;;;;;;10.13;6.50;;;5.70;66.60;;;0.06;100.00;94636.00;4988937;28;20018;-52
2023/12/31 05:48:04;;;;;;;9.00;6.28;;;5.60;66.40;;;-0.27;100.00;94644.28;4989474;28;20463;-52
2023/12/31 05:50:30;;;;;;;11.75;6.40;;;5.40;66.00;;;-0.37;100.00;94644.00;4988872;28;20026;-51
2023/12/31 05:52:56;;;;;;;8.60;6.03;;;5.30;65.90;;;-0.47;100.00;94649.72;4988196;28;20546;-54
2023/12/31 05:55:23;;;;;;;9.05;6.47;;;5.10;65.80;;;-0.61;100.00;94656.13;4988789;28;20028;-51
2023/12/31 05:57:48;;;;;;;8.95;6.28;;;5.00;65.70;;;-0.71;100.00;94656.63;4988559;28;20032;-50
2023/12/31 06:00:15;;;;;;;10.98;7.60;;;4.80;65.60;;;-0.83;100.00;94669.63;4989856;28;20025;-48
2023/12/31 06:02:41;;;;;;;13.98;8.20;;;4.70;65.80;;;-0.91;100.00;94676.94;4982247;28;20489;-50
2023/12/31 06:05:08;;;;;;;21.73;9.50;;;4.60;65.90;;;-0.95;100.00;94687.03;4983115;28;20034;-52
2023/12/31 06:07:36;;;;;;;16.63;10.02;;;4.50;66.10;;;-1.02;100.00;94707.19;4989157;28;20488;-56
2023/12/31 06:10:03;;;;;;;21.88;10.30;;;4.50;66.30;;;-1.05;100.00;94718.06;5004601;28;20064;-49
2023/12/31 06:12:31;;;;;;;27.50;11.80;;;4.40;66.30;;;-1.08;100.00;94728.97;4999907;28;20117;-52
2023/12/31 06:15:06;;;;;;;38.78;11.63;;;4.30;66.50;;;-1.09;100.00;94729.97;4988077;28;20022;-52
2023/12/31 06:17:33;;;;;;;41.70;12.65;;;4.30;66.70;;;-1.07;100.00;94748.84;4988438;28;20084;-50
2023/12/31 06:20:01;;;;;;;129.57;16.70;;;4.20;66.90;;;-1.00;100.00;94745.19;4987456;28;20447;-54
2023/12/31 06:22:27;;;;;;;154.68;16.92;;;4.20;67.10;;;-0.92;100.00;94744.13;4988978;28;20030;-53
2023/12/31 06:24:52;;;;;;;94.85;17.05;;;4.30;67.40;;;-0.82;100.00;94741.81;4993112;28;20385;-52
2023/12/31 06:27:18;;;;;;;55.95;15.73;;;4.30;67.60;;;-0.70;100.00;94734.06;4992100;28;20056;-48
2023/12/31 06:29:44;;;;;;;42.72;17.30;;;4.40;67.80;;;-0.59;100.00;94740.44;4990770;28;20129;-52
2023/12/31 06:32:10;;;;;;;36.13;18.80;;;4.40;68.00;;;-0.50;100.00;94747.00;4991796;28;20025;-52
2023/12/31 06:34:36;;;;;;;33.53;17.40;;;4.40;68.10;;;-0.42;100.00;94744.06;4990539;28;20062;-49
2023/12/31 06:37:02;;;;;;;35.63;19.20;;;4.50;68.30;;;-0.34;100.00;94751.66;4992291;28;20037;-48
2023/12/31 06:39:29;;;;;;;30.52;17.10;;;4.60;68.30;;;-0.27;100.00;94754.22;4991956;28;20022;-50
2023/12/31 06:41:55;;;;;;;35.65;17.98;;;4.70;68.40;;;-0.21;100.00;94752.53;4992370;28;20036;-52
2023/12/31 06:44:21;;;;;;;34.63;17.55;;;4.70;68.40;;;-0.17;100.00;94743.22;4990504;28;20113;-48
2023/12/31 06:46:47;;;;;;;66.32;15.77;;;4.80;68.50;;;-0.17;100.00;94744.03;4992621;28;20071;-48
2023/12/31 06:49:13;;;;;;;78.18;17.30;;;4.80;68.30;;;-0.28;100.00;94735.09;4992659;28;20432;-56
2023/12/31 06:51:39;;;;;;;61.75;17.00;;;4.80;68.10;;;-0.37;100.00;94735.59;4991207;28;20029;-51
2023/12/31 06:54:06;;;;;;;33.97;16.10;;;4.90;68.00;;;-0.32;100.00;94752.22;4992630;28;20025;-52
2023/12/31 06:56:32;;;;;;;40.03;16.65;;;4.80;67.90;;;-0.32;100.00;94749.59;4991411;28;20100;-54
2023/12/31 06:58:58;;;;;;;33.20;16.50;;;4.80;67.90;;;-0.28;100.00;94755.22;4992486;28;20032;-53
2023/12/31 07:01:24;;;;;;;28.02;15.65;;;4.80;67.90;;;-0.26;100.00;94758.41;4992149;28;20041;-51
2023/12/31 07:03:49;;;;;;;32.08;16.25;;;4.80;67.90;;;-0.30;100.00;94763.28;4991068;28;20531;-51
2023/12/31 07:06:15;;;;;;;36.03;16.73;;;4.80;68.00;;;-0.31;100.00;94756.47;4992532;28;20131;-49
2023/12/31 07:08:41;;;;;;;37.80;16.67;;;4.80;68.00;;;-0.32;100.00;94765.31;4989728;28;20021;-56
2023/12/31 07:11:07;;;;;;;38.65;17.63;;;4.80;68.00;;;-0.38;100.00;94760.94;5006969;28;20049;-51
2023/12/31 07:13:33;;;;;;;31.77;17.27;;;4.80;68.00;;;-0.31;100.00;94759.06;4991830;28;20361;-55
2023/12/31 07:16:00;;;;;;;39.65;18.02;;;4.80;68.10;;;-0.27;100.00;94760.25;4991158;28;20025;-49
2023/12/31 07:18:26;;;;;;;47.88;17.42;;;4.80;68.20;;;-0.30;100.00;94757.25;5007222;28;20070;-49
2023/12/31 07:20:55;;;;;;;32.80;16.85;;;4.80;68.20;;;-0.32;100.00;94761.91;4988602;28;20029;-50
2023/12/31 07:23:22;;;;;;;33.78;17.50;;;4.80;68.10;;;-0.36;100.00;94758.91;4991984;28;20025;-49
2023/12/31 07:25:48;;;;;;;36.28;16.55;;;4.70;68.10;;;-0.37;100.00;94761.75;4989356;28;20053;-50
2023/12/31 07:28:14;;;;;;;34.92;17.40;;;4.70;68.10;;;-0.40;100.00;94754.34;4989477;28;20109;-52
2023/12/31 07:30:40;;;;;;;36.63;18.35;;;4.70;68.10;;;-0.40;100.00;94747.28;4990478;28;20041;-48
2023/12/31 07:33:06;;;;;;;35.72;17.98;;;4.70;68.10;;;-0.40;100.00;94749.91;4989747;28;20123;-49
2023/12/31 07:35:36;;;;;;;42.63;19.05;;;4.70;68.20;;;-0.40;100.00;94749.91;4991402;28;20033;-49
2023/12/31 07:38:05;;;;;;;40.28;18.58;;;4.70;68.20;;;-0.38;100.00;94754.91;4985824;28;20514;-50
2023/12/31 07:40:31;;;;;;;42.00;18.48;;;4.70;68.30;;;-0.37;100.00;94751.28;4990215;28;20068;-50
2023/12/31 07:42:57;;;;;;;40.35;18.00;;;4.80;68.40;;;-0.41;100.00;94761.38;4987060;28;20034;-51
2023/12/31 07:45:23;;;;;;;37.72;17.25;;;4.80;68.40;;;-0.35;100.00;94757.09;4988553;28;20028;-53
2023/12/31 07:47:49;;;;;;;33.35;15.75;;;4.80;68.30;;;-0.33;100.00;94757.69;4984741;28;20071;-51
2023/12/31 07:50:15;;;;;;;31.42;15.88;;;4.80;68.30;;;-0.35;100.00;94749.25;4989643;28;20079;-49
2023/12/31 07:52:41;;;;;;;33.60;17.05;;;4.90;68.40;;;-0.33;100.00;94747.22;4984048;28;20030;-49
2023/12/31 07:55:09;;;;;;;31.90;16.02;;;4.90;68.40;;;-0.37;100.00;94754.72;4991443;28;20024;-49
2023/12/31 07:57:35;;;;;;;31.38;16.08;;;4.90;68.40;;;-0.29;100.00;94762.25;4990338;28;20052;-53
2023/12/31 08:00:21;;;;;;;33.78;16.00;;;4.90;68.30;;;-0.28;100.00;94750.78;4988358;28;20034;-51
2023/12/31 08:02:47;;;;;;;31.27;15.30;;;5.00;68.40;;;-0.26;100.00;94750.56;4982245;28;20033;-49
2023/12/31 08:05:13;;;;;;;29.20;13.70;;;5.00;68.30;;;-0.28;100.00;94747.38;4990859;28;20038;-53
2023/12/31 08:07:39;;;;;;;26.70;13.70;;;5.00;68.30;;;-0.24;100.00;94745.91;4990473;28;20022;-53
2023/12/31 08:10:05;;;;;;;29.10;13.88;;;5.10;68.30;;;-0.16;100.00;94748.22;4986180;28;20038;-50
2023/12/31 08:12:31;;;;;;;26.02;13.02;;;5.10;68.30;;;-0.17;100.00;94745.84;4989136;28;20033;-48
2023/12/31 08:14:57;;;;;;;26.27;13.90;;;5.20;68.30;;;-0.11;100.00;94734.50;4991378;28;20453;-50
2023/12/31 08:17:24;;;;;;;25.65;13.70;;;5.20;68.30;;;-0.01;100.00;94734.78;4991126;28;20108;-50
2023/12/31 08:19:50;;;;;;;25.45;14.48;;;5.30;68.50;;;0.12;100.00;94736.44;4989260;28;20076;-51
2023/12/31 08:22:17;;;;;;;20.77;12.18;;;5.40;68.60;;;0.22;100.00;94748.03;4988401;28;20029;-50
2023/12/31 08:24:42;;;;;;;21.58;11.38;;;5.40;68.60;;;0.26;100.00;94742.34;4990854;28;20430;-53
2023/12/31 08:27:08;;;;;;;21.58;11.35;;;5.50;68.60;;;0.28;100.00;94738.47;4990080;28;20018;-51
2023/12/31 08:29:34;;;;;;;21.25;11.68;;;5.60;68.50;;;0.28;100.00;94727.97;4990850;28;20053;-51
2023/12/31 08:32:00;;;;;;;20.45;11.82;;;5.70;68.50;;;0.30;100.00;94727.78;4989381;28;20033;-52
2023/12/31 08:34:26;;;;;;;21.85;11.80;;;5.80;68.40;;;0.39;100.00;94731.69;4991036;28;20108;-50
2023/12/31 08:36:52;;;;;;;19.80;11.35;;;5.80;68.40;;;0.48;100.00;94719.88;4990531;28;20025;-49
2023/12/31 08:39:18;;;;;;;21.15;12.18;;;5.90;68.50;;;0.57;100.00;94717.75;4989867;28;20049;-51
2023/12/31 08:41:44;;;;;;;20.70;10.65;;;6.00;68.40;;;0.61;100.00;94711.81;4989728;28;20485;-51
2023/12/31 08:44:10;;;;;;;24.48;11.90;;;6.10;68.40;;;0.63;100.00;94707.16;4989106;28;20030;-49
2023/12/31 08:46:36;;;;;;;20.20;10.68;;;6.20;68.40;;;0.76;100.00;94723.75;4990251;28;20049;-52
2023/12/31 08:49:02;;;;;;;15.38;9.45;;;6.30;68.40;;;0.86;100.00;94713.50;4991042;28;20477;-49
2023/12/31 08:51:28;;;;;;;14.50;9.48;;;6.40;68.40;;;0.95;100.00;94704.28;4989192;28;20034;-49
2023/12/31 08:53:55;;;;;;;20.45;10.60;;;6.50;68.40;;;1.04;100.00;94707.38;4989163;28;20933;-48
2023/12/31 08:56:20;;;;;;;10.82;7.07;;;6.60;68.40;;;1.13;100.00;94692.91;4989396;28;20392;-54
2023/12/31 08:58:46;;;;;;;13.07;7.88;;;6.70;68.40;;;1.33;100.00;94695.97;4990269;28;20053;-53
2023/12/31 09:01:13;;;;;;;10.93;6.53;;;6.80;68.60;;;1.46;100.00;94687.06;4987980;28;20029;-53
2023/12/31 09:03:39;;;;;;;8.32;5.72;;;7.00;68.70;;;1.69;100.00;94688.88;4986239;28;20099;-52
2023/12/31 09:06:05;;;;;;;8.50;5.35;;;7.10;68.80;;;1.88;100.00;94673.78;4990231;28;20379;-52
2023/12/31 09:08:31;;;;;;;5.80;4.28;;;7.30;68.80;;;2.06;100.00;94672.81;4988618;28;20117;-51
2023/12/31 09:10:56;;;;;;;5.00;3.92;;;7.40;68.60;;;2.17;100.00;94672.00;4988506;28;20056;-53
2023/12/31 09:13:22;;;;;;;6.00;3.78;;;7.60;68.30;;;2.34;100.00;94663.34;4987945;28;20060;-51
2023/12/31 09:15:49;;;;;;;3.92;3.10;;;7.70;68.10;;;2.47;100.00;94668.31;4986688;28;20040;-50
2023/12/31 09:18:17;;;;;;;5.13;3.72;;;7.90;67.80;;;2.62;100.00;94670.44;4990154;28;20048;-51
2023/12/31 09:20:43;;;;;;;6.50;3.67;;;8.00;67.60;;;2.75;100.00;94665.66;4986969;28;20438;-54
2023/12/31 09:23:09;;;;;;;5.28;3.40;;;8.20;67.30;;;2.91;100.00;94671.97;4995620;28;20033;-53
2023/12/31 09:25:35;;;;;;;5.18;3.25;;;8.30;66.90;;;3.05;100.00;94666.41;4940906;28;26576;-54
2023/12/31 09:28:01;;;;;;;4.63;3.28;;;8.50;66.70;;;3.14;100.00;94660.50;4987346;28;20045;-52
2023/12/31 09:30:27;;;;;;;6.38;3.90;;;8.70;66.40;;;3.25;100.00;94662.22;4986384;28;20040;-53
2023/12/31 09:32:52;;;;;;;4.28;2.97;;;8.80;66.10;;;3.34;100.00;94665.25;4987594;28;20032;-54
2023/12/31 09:35:19;;;;;;;3.90;2.97;;;9.00;65.90;;;3.46;100.00;94658.06;4989985;28;20032;-49
2023/12/31 09:37:45;;;;;;;4.15;3.20;;;9.10;65.50;;;3.56;100.00;94651.34;4988809;28;20029;-49
2023/12/31 09:40:11;;;;;;;4.07;2.67;;;9.30;65.30;;;3.69;100.00;94651.78;4989985;28;20056;-49
2023/12/31 09:42:49;;;;;;;5.60;2.90;;;9.40;65.00;;;3.86;100.00;94645.69;4987014;28;20404;-52
2023/12/31 09:45:24;;;;;;;3.67;2.60;;;9.60;64.60;;;3.96;99.32;94651.06;4981459;28;20029;-49
2023/12/31 09:47:53;;;;;;;4.88;3.10;;;9.70;64.40;;;4.06;99.67;94637.22;4989968;28;20469;-50
2023/12/31 09:50:23;;;;;;;4.40;3.10;;;9.80;64.10;;;4.13;98.63;94645.72;4988922;28;20025;-48
2023/12/31 09:52:53;;;;;;;5.30;3.75;;;9.90;63.80;;;4.22;98.77;94638.19;4988571;28;20013;-50
2023/12/31 09:55:20;;;;;;;4.25;2.90;;;10.00;63.60;;;4.31;98.67;94636.69;4992862;28;20171;-51
2023/12/31 09:57:48;;;;;;;5.03;3.05;;;10.20;63.30;;;4.34;96.03;94652.81;4979394;28;20025;-52
2023/12/31 10:00:14;;;;;;;4.80;3.22;;;10.30;63.80;;;4.39;95.41;94649.44;4992879;28;20431;-53
2023/12/31 10:02:46;;;;;;;5.53;3.35;;;10.40;62.70;;;4.43;95.59;94634.72;4996309;28;20033;-49
2023/12/31 10:05:14;;;;;;;5.35;3.35;;;10.50;63.20;;;4.45;94.18;94645.00;4992630;28;20116;-52
2023/12/31 10:07:40;;;;;;;6.05;3.20;;;10.60;62.10;;;4.60;91.24;94638.03;4992766;28;20556;-51
2023/12/31 10:10:10;;;;;;;3.97;2.85;;;10.70;61.80;;;4.77;92.87;94645.84;4993497;28;20152;-51
2023/12/31 10:12:36;;;;;;;3.22;2.78;;;11.00;61.40;;;4.99;90.55;94629.94;4992069;28;20025;-48
2023/12/31 10:15:02;;;;;;;3.45;2.70;;;11.10;61.30;;;5.21;89.53;94632.47;4992850;28;20119;-53